Terminal Aerodrome Forecast
Issued by NWS Austin/San Antonio, TX

Home | Current Version | Previous Version | Text Only | Print | Product List | Glossary On
Versions: 1 2 3 4 5 6 7 8 9 10 11 12 13 14 15 16
000
FTUS44 KEWX 161700
TAFDRT
TAF
KDRT 161739Z 1618/1718 14016G25KT P6SM SCT300
     FM170100 13012KT P6SM SCT045 SCT250
     FM170800 12012KT P6SM BKN020
     FM171500 13012KT P6SM BKN040=

USA.gov is the U.S. government's official web portal to all federal, state and local government web resources and services.